Time,TemperatureF,DewpointF,PressureIn,WindDirection,WindDirectionDegrees,WindSpeedMPH,WindSpeedGustMPH,Humidity,HourlyPrecipIn,Conditions,Clouds,dailyrainin,SoftwareType,DateUTC
2013-02-25 00:02:00,16.9,12.4,30.07,South,174,0.0,0.0,82,0.00,,OVC027,0.00,VWS V14.01,2013-02-25 06:02:00,
2013-02-25 00:12:00,17.3,13.0,30.07,South,174,0.0,0.0,83,0.00,,OVC027,0.00,VWS V14.01,2013-02-25 06:12:00,
2013-02-25 00:17:00,17.7,13.4,30.06,South,174,0.0,0.0,83,0.00,,OVC027,0.00,VWS V14.01,2013-02-25 06:17:00,
2013-02-25 00:22:00,18.0,13.7,30.06,South,174,0.0,0.0,83,0.00,,OVC027,0.00,VWS V14.01,2013-02-25 06:22:00,
2013-02-25 00:27:00,18.4,14.4,30.06,South,174,0.0,0.0,84,0.00,,OVC027,0.00,VWS V14.01,2013-02-25 06:27:00,
2013-02-25 00:32:00,18.9,15.1,30.06,South,174,0.0,0.0,85,0.00,,OVC027,0.00,VWS V14.01,2013-02-25 06:32:00,
2013-02-25 00:37:00,19.4,15.4,30.06,South,174,0.0,0.0,84,0.00,,OVC027,0.00,VWS V14.01,2013-02-25 06:37:00,
2013-02-25 00:42:00,19.7,15.7,30.06,South,174,0.0,0.0,84,0.00,,OVC027,0.00,VWS V14.01,2013-02-25 06:42:00,
2013-02-25 00:52:00,20.2,16.1,30.06,South,174,0.0,0.0,84,0.00,,OVC027,0.00,VWS V14.01,2013-02-25 06:52:00,
2013-02-25 00:57:00,20.3,16.5,30.06,South,174,0.0,0.0,85,0.00,,OVC027,0.00,VWS V14.01,2013-02-25 06:57:00,
2013-02-25 01:02:00,20.5,16.7,30.06,South,174,0.0,0.0,85,0.00,,OVC027,0.00,VWS V14.01,2013-02-25 07:02:00,
2013-02-25 01:12:00,21.1,17.3,30.06,South,174,0.0,0.0,85,0.00,,OVC027,0.00,VWS V14.01,2013-02-25 07:12:00,
2013-02-25 01:17:00,21.3,17.5,30.06,South,174,0.0,0.0,85,0.00,,OVC027,0.00,VWS V14.01,2013-02-25 07:17:00,
2013-02-25 01:22:00,21.4,17.6,30.06,South,174,0.0,0.0,85,0.00,,OVC027,0.00,VWS V14.01,2013-02-25 07:22:00,
2013-02-25 01:32:00,21.8,17.7,30.06,South,174,0.0,0.0,84,0.00,,OVC027,0.00,VWS V14.01,2013-02-25 07:32:00,
2013-02-25 01:37:00,21.9,17.8,30.06,South,174,0.0,0.0,84,0.00,,OVC027,0.00,VWS V14.01,2013-02-25 07:37:00,
2013-02-25 01:47:00,22.1,18.0,30.06,South,174,0.0,0.0,84,0.00,,OVC027,0.00,VWS V14.01,2013-02-25 07:47:00,
2013-02-25 01:52:00,22.2,18.1,30.06,South,174,0.0,0.0,84,0.00,,OVC027,0.00,VWS V14.01,2013-02-25 07:52:00,
2013-02-25 01:57:00,22.2,18.1,30.06,South,174,0.0,0.0,84,0.00,,OVC027,0.00,VWS V14.01,2013-02-25 07:57:00,
2013-02-25 02:02:00,22.4,18.3,30.06,South,174,0.0,0.0,84,0.00,,OVC026,0.00,VWS V14.01,2013-02-25 08:02:00,
2013-02-25 02:07:00,22.4,18.3,30.06,South,174,0.0,0.0,84,0.00,,OVC026,0.00,VWS V14.01,2013-02-25 08:07:00,
2013-02-25 02:17:00,22.7,18.6,30.06,South,174,0.0,0.0,84,0.00,,OVC026,0.00,VWS V14.01,2013-02-25 08:17:00,
2013-02-25 02:22:00,22.7,18.3,30.06,South,174,0.0,0.0,83,0.00,,OVC026,0.00,VWS V14.01,2013-02-25 08:22:00,
2013-02-25 02:27:00,22.9,18.5,30.06,South,174,0.0,0.0,83,0.00,,OVC026,0.00,VWS V14.01,2013-02-25 08:27:00,
2013-02-25 02:32:00,22.9,18.5,30.05,South,174,0.0,0.0,83,0.00,,OVC026,0.00,VWS V14.01,2013-02-25 08:32:00,
2013-02-25 02:37:00,22.9,18.5,30.05,South,174,0.0,0.0,83,0.00,,OVC026,0.00,VWS V14.01,2013-02-25 08:37:00,
2013-02-25 02:42:00,23.0,18.6,30.05,South,174,0.0,0.0,83,0.00,,OVC026,0.00,VWS V14.01,2013-02-25 08:42:00,
2013-02-25 02:47:00,23.0,18.6,30.05,South,174,0.0,0.0,83,0.00,,OVC026,0.00,VWS V14.01,2013-02-25 08:47:00,
2013-02-25 02:57:00,23.2,18.8,30.05,South,174,0.0,0.0,83,0.00,,OVC026,0.00,VWS V14.01,2013-02-25 08:57:00,
2013-02-25 03:02:00,23.3,18.9,30.04,South,174,0.0,0.0,83,0.00,,OVC020,0.00,VWS V14.01,2013-02-25 09:02:00,
2013-02-25 03:07:00,23.3,18.6,30.04,South,174,0.0,0.0,82,0.00,,OVC020,0.00,VWS V14.01,2013-02-25 09:07:00,
2013-02-25 03:12:00,23.5,18.8,30.04,South,174,0.0,0.0,82,0.00,,OVC020,0.00,VWS V14.01,2013-02-25 09:12:00,
2013-02-25 03:17:00,23.5,18.8,30.04,South,174,0.0,0.0,82,0.00,,OVC020,0.00,VWS V14.01,2013-02-25 09:17:00,
2013-02-25 03:27:00,23.6,18.9,30.04,South,174,0.0,0.0,82,0.00,,OVC020,0.00,VWS V14.01,2013-02-25 09:27:00,
2013-02-25 03:37:00,23.6,18.9,30.04,South,174,0.0,0.0,82,0.00,,OVC020,0.00,VWS V14.01,2013-02-25 09:37:00,
2013-02-25 03:47:00,23.8,19.1,30.04,South,174,0.0,0.0,82,0.00,,OVC020,0.00,VWS V14.01,2013-02-25 09:47:00,
2013-02-25 03:52:00,23.8,18.8,30.04,South,174,0.0,0.0,81,0.00,,OVC020,0.00,VWS V14.01,2013-02-25 09:52:00,
2013-02-25 04:02:00,23.8,18.8,30.03,South,174,0.0,0.0,81,0.00,,OVC026,0.00,VWS V14.01,2013-02-25 10:02:00,
2013-02-25 04:07:00,23.9,18.9,30.03,South,174,0.0,0.0,81,0.00,,OVC026,0.00,VWS V14.01,2013-02-25 10:07:00,
2013-02-25 04:17:00,23.9,18.9,30.03,South,174,0.0,0.0,81,0.00,,OVC026,0.00,VWS V14.01,2013-02-25 10:17:00,
2013-02-25 04:22:00,24.1,19.1,30.03,South,174,0.0,0.0,81,0.00,,OVC026,0.00,VWS V14.01,2013-02-25 10:22:00,
2013-02-25 04:27:00,24.1,19.1,30.03,South,174,0.0,0.0,81,0.00,,OVC026,0.00,VWS V14.01,2013-02-25 10:27:00,
2013-02-25 04:32:00,24.1,19.1,30.04,South,174,0.0,0.0,81,0.00,,OVC026,0.00,VWS V14.01,2013-02-25 10:32:00,
2013-02-25 04:37:00,24.1,19.1,30.04,South,174,0.0,0.0,81,0.00,,OVC026,0.00,VWS V14.01,2013-02-25 10:37:00,
2013-02-25 04:47:00,24.2,19.2,30.04,South,174,0.0,0.0,81,0.00,,OVC026,0.00,VWS V14.01,2013-02-25 10:47:00,
2013-02-25 04:52:00,24.2,19.2,30.04,South,174,0.0,0.0,81,0.00,,OVC026,0.00,VWS V14.01,2013-02-25 10:52:00,
2013-02-25 04:57:00,24.2,19.2,30.04,South,174,0.0,0.0,81,0.00,,OVC026,0.00,VWS V14.01,2013-02-25 10:57:00,
2013-02-25 05:07:00,24.2,19.2,30.04,South,174,0.0,0.0,81,0.00,,OVC026,0.00,VWS V14.01,2013-02-25 11:07:00,
2013-02-25 05:17:00,24.4,19.4,30.03,South,174,0.0,0.0,81,0.00,,OVC026,0.00,VWS V14.01,2013-02-25 11:17:00,
2013-02-25 05:22:00,24.4,19.4,30.03,South,174,0.0,0.0,81,0.00,,OVC026,0.00,VWS V14.01,2013-02-25 11:22:00,
2013-02-25 05:27:00,24.4,19.4,30.03,South,174,0.0,0.0,81,0.00,,OVC026,0.00,VWS V14.01,2013-02-25 11:27:00,
2013-02-25 05:37:00,24.4,19.4,30.03,South,174,0.0,0.0,81,0.00,,OVC026,0.00,VWS V14.01,2013-02-25 11:37:00,
2013-02-25 05:42:00,24.4,19.4,30.03,South,174,0.0,0.0,81,0.00,,OVC026,0.00,VWS V14.01,2013-02-25 11:42:00,
2013-02-25 05:47:00,24.5,19.5,30.04,South,174,0.0,0.0,81,0.00,,OVC026,0.00,VWS V14.01,2013-02-25 11:47:00,
2013-02-25 05:57:00,24.5,19.5,30.04,South,174,0.0,0.0,81,0.00,,OVC026,0.00,VWS V14.01,2013-02-25 11:57:00,
2013-02-25 06:02:00,24.5,19.5,30.03,South,174,0.0,0.0,81,0.00,,OVC026,0.00,VWS V14.01,2013-02-25 12:02:00,
2013-02-25 06:12:00,24.7,19.7,30.03,South,174,0.0,0.0,81,0.00,,OVC026,0.00,VWS V14.01,2013-02-25 12:12:00,
2013-02-25 06:22:00,24.7,19.7,30.05,South,174,0.0,0.0,81,0.00,,OVC026,0.00,VWS V14.01,2013-02-25 12:22:00,
2013-02-25 06:32:00,24.7,19.7,30.07,South,174,0.0,0.0,81,0.00,,OVC026,0.00,VWS V14.01,2013-02-25 12:32:00,
2013-02-25 06:37:00,24.7,19.7,30.07,South,174,0.0,0.0,81,0.00,,OVC026,0.00,VWS V14.01,2013-02-25 12:37:00,
2013-02-25 06:47:00,24.8,19.8,30.07,South,174,0.0,0.0,81,0.00,,OVC026,0.00,VWS V14.01,2013-02-25 12:47:00,
2013-02-25 06:57:00,24.7,19.7,30.07,South,174,0.0,0.0,81,0.00,,OVC026,0.00,VWS V14.01,2013-02-25 12:57:00,
2013-02-25 07:12:00,24.7,19.7,30.06,South,174,0.0,0.0,81,0.00,,OVC026,0.00,VWS V14.01,2013-02-25 13:12:00,
2013-02-25 07:17:00,24.7,19.7,30.06,South,174,0.0,0.0,81,0.00,,OVC026,0.00,VWS V14.01,2013-02-25 13:17:00,
2013-02-25 07:22:00,24.7,19.7,30.06,South,174,0.0,0.0,81,0.00,,OVC026,0.00,VWS V14.01,2013-02-25 13:22:00,
2013-02-25 07:27:00,24.7,19.7,30.06,South,174,0.0,0.0,81,0.00,,OVC026,0.00,VWS V14.01,2013-02-25 13:27:00,
2013-02-25 07:37:00,24.7,19.7,30.06,South,174,0.0,0.0,81,0.00,,OVC026,0.00,VWS V14.01,2013-02-25 13:37:00,
2013-02-25 07:42:00,24.7,19.7,30.06,South,174,0.0,0.0,81,0.00,,OVC026,0.00,VWS V14.01,2013-02-25 13:42:00,
2013-02-25 07:47:00,24.8,19.8,30.06,South,174,0.0,0.0,81,0.00,,OVC026,0.00,VWS V14.01,2013-02-25 13:47:00,
2013-02-25 07:57:00,25.0,20.0,30.06,South,174,0.0,0.0,81,0.00,,OVC026,0.00,VWS V14.01,2013-02-25 13:57:00,
2013-02-25 08:02:00,25.0,20.0,30.07,South,174,0.0,0.0,81,0.00,,,0.00,VWS V14.01,2013-02-25 14:02:00,
2013-02-25 08:07:00,25.0,20.0,30.07,South,174,0.0,0.0,81,0.00,,,0.00,VWS V14.01,2013-02-25 14:07:00,
2013-02-25 08:12:00,25.1,19.8,30.07,South,174,0.0,0.0,80,0.00,,,0.00,VWS V14.01,2013-02-25 14:12:00,
2013-02-25 08:22:00,25.3,20.0,30.07,South,174,0.0,0.0,80,0.00,,,0.00,VWS V14.01,2013-02-25 14:22:00,
2013-02-25 08:27:00,25.4,20.1,30.07,South,174,0.0,0.0,80,0.00,,,0.00,VWS V14.01,2013-02-25 14:27:00,
2013-02-25 08:32:00,25.4,19.8,30.07,South,174,0.0,0.0,79,0.00,,,0.00,VWS V14.01,2013-02-25 14:32:00,
2013-02-25 08:42:00,25.6,19.7,30.07,South,174,0.0,0.0,78,0.00,,,0.00,VWS V14.01,2013-02-25 14:42:00,
2013-02-25 08:52:00,25.7,19.8,30.07,South,174,0.0,0.0,78,0.00,,,0.00,VWS V14.01,2013-02-25 14:52:00,
2013-02-25 08:57:00,25.8,19.9,30.07,South,174,0.0,0.0,78,0.00,,,0.00,VWS V14.01,2013-02-25 14:57:00,
2013-02-25 09:07:00,26.3,20.1,30.07,South,174,0.0,0.0,77,0.00,,,0.00,VWS V14.01,2013-02-25 15:07:00,
2013-02-25 09:12:00,26.4,20.2,30.07,South,174,0.0,0.0,77,0.00,,,0.00,VWS V14.01,2013-02-25 15:12:00,
2013-02-25 09:22:00,26.7,20.2,30.08,South,174,0.0,0.0,76,0.00,,,0.00,VWS V14.01,2013-02-25 15:22:00,
2013-02-25 09:27:00,26.7,19.9,30.08,South,174,0.0,0.0,75,0.00,,,0.00,VWS V14.01,2013-02-25 15:27:00,
2013-02-25 09:32:00,26.9,20.0,30.08,South,174,0.0,0.0,75,0.00,,,0.00,VWS V14.01,2013-02-25 15:32:00,
2013-02-25 09:42:00,27.2,20.0,30.08,NNW,344,2.0,3.0,74,0.00,,,0.00,VWS V14.01,2013-02-25 15:42:00,
2013-02-25 09:52:00,27.5,20.0,30.08,North,355,1.0,1.0,73,0.00,,,0.00,VWS V14.01,2013-02-25 15:52:00,
2013-02-25 10:02:00,27.8,20.0,30.08,North,355,2.0,3.0,72,0.00,,,0.00,VWS V14.01,2013-02-25 16:02:00,
2013-02-25 10:07:00,28.1,20.2,30.08,North,355,0.0,2.0,72,0.00,,,0.00,VWS V14.01,2013-02-25 16:07:00,
2013-02-25 10:12:00,28.4,20.5,30.08,North,355,0.0,2.0,72,0.00,,,0.00,VWS V14.01,2013-02-25 16:12:00,
2013-02-25 10:17:00,28.5,20.3,30.08,North,355,0.0,1.0,71,0.00,,,0.00,VWS V14.01,2013-02-25 16:17:00,
2013-02-25 10:27:00,28.7,19.8,30.08,North,355,0.0,0.0,69,0.00,,,0.00,VWS V14.01,2013-02-25 16:27:00,
2013-02-25 10:32:00,29.0,20.5,30.08,North,355,0.0,0.0,70,0.00,,,0.00,VWS V14.01,2013-02-25 16:32:00,
2013-02-25 10:42:00,29.5,20.3,30.08,North,355,0.0,0.0,68,0.00,,,0.00,VWS V14.01,2013-02-25 16:42:00,
2013-02-25 10:47:00,30.0,20.7,30.08,North,355,0.0,0.0,68,0.00,,,0.00,VWS V14.01,2013-02-25 16:47:00,
2013-02-25 10:57:00,30.6,21.0,30.08,North,355,0.0,0.0,67,0.00,,,0.00,VWS V14.01,2013-02-25 16:57:00,
2013-02-25 11:02:00,31.0,21.0,30.07,North,355,0.0,0.0,66,0.00,,,0.00,VWS V14.01,2013-02-25 17:02:00,
2013-02-25 11:07:00,31.3,21.3,30.07,North,355,0.0,0.0,66,0.00,,,0.00,VWS V14.01,2013-02-25 17:07:00,
2013-02-25 11:12:00,31.8,21.4,30.07,North,355,0.0,0.0,65,0.00,,,0.00,VWS V14.01,2013-02-25 17:12:00,
2013-02-25 11:17:00,31.8,21.0,30.07,NE,47,2.0,2.0,64,0.00,,,0.00,VWS V14.01,2013-02-25 17:17:00,
2013-02-25 11:22:00,32.1,21.3,30.07,NE,49,0.0,2.0,64,0.00,,,0.00,VWS V14.01,2013-02-25 17:22:00,
2013-02-25 11:27:00,32.2,21.0,30.07,East,79,1.0,2.0,63,0.00,,,0.00,VWS V14.01,2013-02-25 17:27:00,
2013-02-25 11:37:00,32.8,21.2,30.08,ESE,107,0.0,2.0,62,0.00,,,0.00,VWS V14.01,2013-02-25 17:37:00,
2013-02-25 11:42:00,33.4,21.4,30.08,SE,143,0.0,2.0,61,0.00,,,0.00,VWS V14.01,2013-02-25 17:42:00,
2013-02-25 11:47:00,33.5,20.7,30.08,SSE,165,0.0,2.0,59,0.00,,,0.00,VWS V14.01,2013-02-25 17:47:00,
2013-02-25 11:52:00,33.4,20.6,30.08,SSE,165,0.0,0.0,59,0.00,,,0.00,VWS V14.01,2013-02-25 17:52:00,
2013-02-25 11:57:00,33.4,20.6,30.08,SSE,165,0.0,1.0,59,0.00,,,0.00,VWS V14.01,2013-02-25 17:57:00,
2013-02-25 12:02:00,33.7,21.3,30.07,SSE,166,1.0,2.0,60,0.00,,,0.00,VWS V14.01,2013-02-25 18:02:00,
2013-02-25 12:07:00,34.3,21.5,30.07,SW,215,0.0,3.0,59,0.00,,,0.00,VWS V14.01,2013-02-25 18:07:00,
2013-02-25 12:12:00,34.4,20.8,30.07,SW,215,0.0,0.0,57,0.00,,,0.00,VWS V14.01,2013-02-25 18:12:00,
2013-02-25 12:17:00,34.3,21.1,30.06,SW,215,0.0,0.0,58,0.00,,,0.00,VWS V14.01,2013-02-25 18:17:00,
2013-02-25 12:22:00,34.1,21.3,30.06,West,261,0.0,3.0,59,0.00,,,0.00,VWS V14.01,2013-02-25 18:22:00,
2013-02-25 12:27:00,34.4,20.3,30.06,SSW,213,3.0,3.0,56,0.00,,,0.00,VWS V14.01,2013-02-25 18:27:00,
2013-02-25 12:32:00,34.7,21.0,30.05,SSW,213,1.0,3.0,57,0.00,,,0.00,VWS V14.01,2013-02-25 18:32:00,
2013-02-25 12:42:00,35.9,21.8,30.05,West,266,3.0,3.0,56,0.00,,,0.00,VWS V14.01,2013-02-25 18:42:00,
2013-02-25 12:47:00,34.9,20.8,30.04,NW,321,0.0,3.0,56,0.00,,,0.00,VWS V14.01,2013-02-25 18:47:00,
2013-02-25 12:52:00,34.9,21.2,30.04,NW,320,0.0,3.0,57,0.00,,,0.00,VWS V14.01,2013-02-25 18:52:00,
2013-02-25 12:57:00,34.0,20.8,30.04,NW,321,0.0,1.0,58,0.00,,,0.00,VWS V14.01,2013-02-25 18:57:00,
2013-02-25 13:02:00,34.1,21.7,30.05,WSW,258,0.0,3.0,60,0.00,,SCT024,0.00,VWS V14.01,2013-02-25 19:02:00,
2013-02-25 13:07:00,35.0,21.7,30.05,West,281,0.0,3.0,58,0.00,,SCT024,0.00,VWS V14.01,2013-02-25 19:07:00,
2013-02-25 13:12:00,35.8,21.2,30.05,WNW,292,1.0,3.0,55,0.00,,SCT024,0.00,VWS V14.01,2013-02-25 19:12:00,
2013-02-25 13:17:00,35.5,22.2,30.04,WNW,298,0.0,3.0,58,0.00,,SCT024,0.00,VWS V14.01,2013-02-25 19:17:00,
2013-02-25 13:22:00,36.8,21.7,30.04,WNW,298,0.0,0.0,54,0.00,,SCT024,0.00,VWS V14.01,2013-02-25 19:22:00,
2013-02-25 13:32:00,37.3,22.2,30.03,SSW,211,0.0,0.0,54,0.00,,SCT024,0.00,VWS V14.01,2013-02-25 19:32:00,
2013-02-25 13:37:00,36.8,21.7,30.03,WNW,282,5.0,5.0,54,0.00,,SCT024,0.00,VWS V14.01,2013-02-25 19:37:00,
2013-02-25 13:42:00,36.0,21.4,30.03,NW,311,0.0,5.0,55,0.00,,SCT024,0.00,VWS V14.01,2013-02-25 19:42:00,
2013-02-25 13:47:00,35.3,21.2,30.03,NW,320,0.0,4.0,56,0.00,,SCT024,0.00,VWS V14.01,2013-02-25 19:47:00,
2013-02-25 13:52:00,34.7,21.5,30.03,NNW,336,2.0,7.0,58,0.00,,SCT024,0.00,VWS V14.01,2013-02-25 19:52:00,
2013-02-25 14:02:00,35.0,21.3,30.03,NNW,329,2.0,4.0,57,0.00,,CLR,0.00,VWS V14.01,2013-02-25 20:02:00,
2013-02-25 14:07:00,34.7,21.0,30.03,NW,325,3.0,4.0,57,0.00,,CLR,0.00,VWS V14.01,2013-02-25 20:07:00,
2013-02-25 14:12:00,34.9,22.0,30.03,WNW,297,3.0,5.0,59,0.00,,CLR,0.00,VWS V14.01,2013-02-25 20:12:00,
2013-02-25 14:17:00,35.5,21.8,30.02,WNW,297,0.0,3.0,57,0.00,,CLR,0.00,VWS V14.01,2013-02-25 20:17:00,
2013-02-25 14:22:00,35.6,21.9,30.02,West,281,0.0,5.0,57,0.00,,CLR,0.00,VWS V14.01,2013-02-25 20:22:00,
2013-02-25 14:27:00,35.8,21.6,30.02,WNW,294,0.0,1.0,56,0.00,,CLR,0.00,VWS V14.01,2013-02-25 20:27:00,
2013-02-25 14:32:00,35.9,22.2,30.02,NW,323,0.0,0.0,57,0.00,,CLR,0.00,VWS V14.01,2013-02-25 20:32:00,
2013-02-25 14:37:00,35.8,21.6,30.02,NNW,338,0.0,5.0,56,0.00,,CLR,0.00,VWS V14.01,2013-02-25 20:37:00,
2013-02-25 14:42:00,35.5,21.4,30.02,North,360,0.0,4.0,56,0.00,,CLR,0.00,VWS V14.01,2013-02-25 20:42:00,
2013-02-25 14:47:00,35.3,21.2,30.02,WNW,297,0.0,3.0,56,0.00,,CLR,0.00,VWS V14.01,2013-02-25 20:47:00,
2013-02-25 14:52:00,35.3,22.0,30.02,North,360,0.0,3.0,58,0.00,,CLR,0.00,VWS V14.01,2013-02-25 20:52:00,
2013-02-25 14:57:00,35.0,21.7,30.02,NNW,345,0.0,5.0,58,0.00,,CLR,0.00,VWS V14.01,2013-02-25 20:57:00,
2013-02-25 15:02:00,34.9,21.2,30.01,NNW,340,5.0,7.0,57,0.00,,CLR,0.00,VWS V14.01,2013-02-25 21:02:00,
2013-02-25 15:07:00,34.9,22.0,30.01,NNW,331,5.0,6.0,59,0.00,,CLR,0.00,VWS V14.01,2013-02-25 21:07:00,
2013-02-25 15:12:00,34.7,21.5,30.01,North,350,0.0,5.0,58,0.00,,CLR,0.00,VWS V14.01,2013-02-25 21:12:00,
2013-02-25 15:22:00,34.6,21.4,30.02,North,5,0.0,2.0,58,0.00,,CLR,0.00,VWS V14.01,2013-02-25 21:22:00,
2013-02-25 15:27:00,34.7,21.5,30.02,NW,322,0.0,2.0,58,0.00,,CLR,0.00,VWS V14.01,2013-02-25 21:27:00,
2013-02-25 15:37:00,34.7,21.5,30.02,NNW,337,0.0,0.0,58,0.00,,CLR,0.00,VWS V14.01,2013-02-25 21:37:00,
2013-02-25 15:42:00,34.9,21.6,30.02,NNW,337,0.0,0.0,58,0.00,,CLR,0.00,VWS V14.01,2013-02-25 21:42:00,
2013-02-25 15:52:00,34.9,21.6,30.02,NW,317,0.0,0.0,58,0.00,,CLR,0.00,VWS V14.01,2013-02-25 21:52:00,
2013-02-25 15:57:00,34.9,21.6,30.02,NW,317,0.0,3.0,58,0.00,,CLR,0.00,VWS V14.01,2013-02-25 21:57:00,
2013-02-25 16:02:00,34.9,21.6,30.02,NNW,327,0.0,1.0,58,0.00,,CLR,0.00,VWS V14.01,2013-02-25 22:02:00,
2013-02-25 16:07:00,34.7,21.9,30.02,NNW,343,0.0,4.0,59,0.00,,CLR,0.00,VWS V14.01,2013-02-25 22:07:00,
2013-02-25 16:12:00,34.7,21.9,30.02,NNW,331,0.0,4.0,59,0.00,,CLR,0.00,VWS V14.01,2013-02-25 22:12:00,
2013-02-25 16:17:00,34.6,21.8,30.02,NNW,332,0.0,3.0,59,0.00,,CLR,0.00,VWS V14.01,2013-02-25 22:17:00,
2013-02-25 16:27:00,34.4,21.6,30.02,NE,45,0.0,1.0,59,0.00,,CLR,0.00,VWS V14.01,2013-02-25 22:27:00,
2013-02-25 16:32:00,34.4,21.6,30.02,NE,44,0.0,0.0,59,0.00,,CLR,0.00,VWS V14.01,2013-02-25 22:32:00,
2013-02-25 16:37:00,34.3,21.5,30.02,NE,44,0.0,2.0,59,0.00,,CLR,0.00,VWS V14.01,2013-02-25 22:37:00,
2013-02-25 16:42:00,34.3,21.5,30.02,NE,44,0.0,0.0,59,0.00,,CLR,0.00,VWS V14.01,2013-02-25 22:42:00,
2013-02-25 16:47:00,34.3,21.9,30.02,NE,44,0.0,0.0,60,0.00,,CLR,0.00,VWS V14.01,2013-02-25 22:47:00,
2013-02-25 16:52:00,34.1,21.7,30.02,NE,44,0.0,0.0,60,0.00,,CLR,0.00,VWS V14.01,2013-02-25 22:52:00,
2013-02-25 16:57:00,34.1,21.7,30.02,NE,44,0.0,0.0,60,0.00,,CLR,0.00,VWS V14.01,2013-02-25 22:57:00,
2013-02-25 17:02:00,34.0,21.6,30.03,NE,44,0.0,0.0,60,0.00,,CLR,0.00,VWS V14.01,2013-02-25 23:02:00,
2013-02-25 17:07:00,33.8,21.8,30.03,NE,44,0.0,0.0,61,0.00,,CLR,0.00,VWS V14.01,2013-02-25 23:07:00,
2013-02-25 17:17:00,33.4,21.8,30.01,NE,44,0.0,0.0,62,0.00,,CLR,0.00,VWS V14.01,2013-02-25 23:17:00,
2013-02-25 17:22:00,33.1,21.5,30.01,NE,44,0.0,0.0,62,0.00,,CLR,0.00,VWS V14.01,2013-02-25 23:22:00,
2013-02-25 17:32:00,32.8,21.2,30.02,NE,44,0.0,0.0,62,0.00,,CLR,0.00,VWS V14.01,2013-02-25 23:32:00,
2013-02-25 17:37:00,32.7,21.1,30.02,NE,44,0.0,0.0,62,0.00,,CLR,0.00,VWS V14.01,2013-02-25 23:37:00,
2013-02-25 17:42:00,32.5,20.9,30.02,NE,44,0.0,0.0,62,0.00,,CLR,0.00,VWS V14.01,2013-02-25 23:42:00,
2013-02-25 17:52:00,31.6,20.5,30.02,NE,44,0.0,2.0,63,0.00,,CLR,0.00,VWS V14.01,2013-02-25 23:52:00,
2013-02-25 17:57:00,31.0,20.6,30.02,North,355,0.0,3.0,65,0.00,,CLR,0.00,VWS V14.01,2013-02-25 23:57:00,
2013-02-25 18:02:00,30.7,20.3,30.02,North,351,0.0,2.0,65,0.00,,CLR,0.00,VWS V14.01,2013-02-26 00:02:00,
2013-02-25 18:07:00,30.4,20.1,30.02,North,351,0.0,2.0,65,0.00,,CLR,0.00,VWS V14.01,2013-02-26 00:07:00,
2013-02-25 18:12:00,30.1,20.1,30.02,North,351,0.0,0.0,66,0.00,,CLR,0.00,VWS V14.01,2013-02-26 00:12:00,
2013-02-25 18:22:00,29.5,19.9,30.03,North,351,0.0,0.0,67,0.00,,CLR,0.00,VWS V14.01,2013-02-26 00:22:00,
2013-02-25 18:27:00,29.3,19.7,30.03,North,351,0.0,0.0,67,0.00,,CLR,0.00,VWS V14.01,2013-02-26 00:27:00,
2013-02-25 18:32:00,29.0,19.4,30.03,North,351,0.0,0.0,67,0.00,,CLR,0.00,VWS V14.01,2013-02-26 00:32:00,
2013-02-25 18:37:00,28.5,19.3,30.03,North,351,0.0,0.0,68,0.00,,CLR,0.00,VWS V14.01,2013-02-26 00:37:00,
2013-02-25 18:42:00,28.2,19.0,30.03,North,351,0.0,2.0,68,0.00,,CLR,0.00,VWS V14.01,2013-02-26 00:42:00,
2013-02-25 18:47:00,28.1,18.9,30.03,North,351,0.0,0.0,68,0.00,,CLR,0.00,VWS V14.01,2013-02-26 00:47:00,
2013-02-25 18:52:00,27.8,19.0,30.03,North,351,0.0,0.0,69,0.00,,CLR,0.00,VWS V14.01,2013-02-26 00:52:00,
2013-02-25 18:57:00,27.5,18.7,30.03,North,351,0.0,0.0,69,0.00,,CLR,0.00,VWS V14.01,2013-02-26 00:57:00,
2013-02-25 19:02:00,27.2,18.7,30.03,North,351,0.0,0.0,70,0.00,,CLR,0.00,VWS V14.01,2013-02-26 01:02:00,
2013-02-25 19:07:00,26.9,18.8,30.03,North,351,0.0,0.0,71,0.00,,CLR,0.00,VWS V14.01,2013-02-26 01:07:00,
2013-02-25 19:12:00,26.7,18.6,30.03,North,351,0.0,0.0,71,0.00,,CLR,0.00,VWS V14.01,2013-02-26 01:12:00,
2013-02-25 19:22:00,26.7,18.9,30.03,North,351,0.0,0.0,72,0.00,,CLR,0.00,VWS V14.01,2013-02-26 01:22:00,
2013-02-25 19:27:00,26.7,18.9,30.03,North,351,0.0,0.0,72,0.00,,CLR,0.00,VWS V14.01,2013-02-26 01:27:00,
2013-02-25 19:32:00,26.7,19.2,30.05,North,351,0.0,0.0,73,0.00,,CLR,0.00,VWS V14.01,2013-02-26 01:32:00,
2013-02-25 19:37:00,26.4,18.9,30.05,North,351,0.0,0.0,73,0.00,,CLR,0.00,VWS V14.01,2013-02-26 01:37:00,
2013-02-25 19:42:00,26.3,18.8,30.05,North,351,0.0,0.0,73,0.00,,CLR,0.00,VWS V14.01,2013-02-26 01:42:00,
2013-02-25 19:47:00,25.8,18.4,30.04,North,351,0.0,0.0,73,0.00,,CLR,0.00,VWS V14.01,2013-02-26 01:47:00,
2013-02-25 19:52:00,25.6,18.2,30.04,North,351,0.0,0.0,73,0.00,,CLR,0.00,VWS V14.01,2013-02-26 01:52:00,
2013-02-25 20:02:00,25.0,17.9,30.04,North,351,0.0,0.0,74,0.00,,CLR,0.00,VWS V14.01,2013-02-26 02:02:00,
2013-02-25 20:07:00,24.8,17.7,30.04,North,351,0.0,0.0,74,0.00,,CLR,0.00,VWS V14.01,2013-02-26 02:07:00,
2013-02-25 20:12:00,24.5,17.7,30.04,North,351,0.0,0.0,75,0.00,,CLR,0.00,VWS V14.01,2013-02-26 02:12:00,
2013-02-25 20:17:00,24.2,17.4,30.04,North,351,0.0,0.0,75,0.00,,CLR,0.00,VWS V14.01,2013-02-26 02:17:00,
2013-02-25 20:22:00,23.9,17.1,30.04,North,351,0.0,0.0,75,0.00,,CLR,0.00,VWS V14.01,2013-02-26 02:22:00,
2013-02-25 20:32:00,23.6,17.5,30.03,North,351,0.0,0.0,77,0.00,,CLR,0.00,VWS V14.01,2013-02-26 02:32:00,
2013-02-25 20:37:00,23.5,17.4,30.03,North,351,0.0,0.0,77,0.00,,CLR,0.00,VWS V14.01,2013-02-26 02:37:00,
2013-02-25 20:42:00,23.2,17.1,30.03,North,351,0.0,0.0,77,0.00,,CLR,0.00,VWS V14.01,2013-02-26 02:42:00,
2013-02-25 20:52:00,22.5,16.4,30.03,North,351,0.0,0.0,77,0.00,,CLR,0.00,VWS V14.01,2013-02-26 02:52:00,
2013-02-25 20:57:00,22.4,16.3,30.03,North,351,0.0,0.0,77,0.00,,CLR,0.00,VWS V14.01,2013-02-26 02:57:00,
2013-02-25 21:02:00,22.2,16.4,30.02,North,351,0.0,0.0,78,0.00,,,0.00,VWS V14.01,2013-02-26 03:02:00,
2013-02-25 21:07:00,22.2,16.7,30.02,North,351,0.0,0.0,79,0.00,,,0.00,VWS V14.01,2013-02-26 03:07:00,
2013-02-25 21:17:00,22.2,16.7,30.02,North,351,0.0,0.0,79,0.00,,,0.00,VWS V14.01,2013-02-26 03:17:00,
2013-02-25 21:27:00,21.8,16.3,30.02,North,351,0.0,0.0,79,0.00,,,0.00,VWS V14.01,2013-02-26 03:27:00,
2013-02-25 21:32:00,21.4,15.9,30.02,North,351,0.0,0.0,79,0.00,,,0.00,VWS V14.01,2013-02-26 03:32:00,
2013-02-25 21:37:00,21.0,15.5,30.02,North,351,0.0,0.0,79,0.00,,,0.00,VWS V14.01,2013-02-26 03:37:00,
2013-02-25 21:47:00,20.6,15.4,30.02,North,351,0.0,0.0,80,0.00,,,0.00,VWS V14.01,2013-02-26 03:47:00,
2013-02-25 21:52:00,20.6,15.4,30.02,North,351,0.0,0.0,80,0.00,,,0.00,VWS V14.01,2013-02-26 03:52:00,
2013-02-25 22:02:00,20.5,15.3,30.01,North,351,0.0,0.0,80,0.00,,,0.00,VWS V14.01,2013-02-26 04:02:00,
2013-02-25 22:07:00,20.2,15.0,30.01,North,351,0.0,0.0,80,0.00,,,0.00,VWS V14.01,2013-02-26 04:07:00,
2013-02-25 22:17:00,19.5,14.6,30.00,North,351,0.0,0.0,81,0.00,,,0.00,VWS V14.01,2013-02-26 04:17:00,
2013-02-25 22:22:00,19.4,14.5,30.00,North,351,0.0,0.0,81,0.00,,,0.00,VWS V14.01,2013-02-26 04:22:00,
2013-02-25 22:27:00,19.1,14.2,30.00,North,351,0.0,0.0,81,0.00,,,0.00,VWS V14.01,2013-02-26 04:27:00,
2013-02-25 22:32:00,18.9,14.0,30.00,North,351,0.0,0.0,81,0.00,,,0.00,VWS V14.01,2013-02-26 04:32:00,
2013-02-25 22:37:00,18.8,14.2,30.00,North,351,0.0,0.0,82,0.00,,,0.00,VWS V14.01,2013-02-26 04:37:00,
2013-02-25 22:47:00,18.9,14.3,30.00,North,351,0.0,0.0,82,0.00,,,0.00,VWS V14.01,2013-02-26 04:47:00,
2013-02-25 22:52:00,18.9,14.3,30.00,North,351,0.0,0.0,82,0.00,,,0.00,VWS V14.01,2013-02-26 04:52:00,
2013-02-25 22:57:00,18.6,14.0,30.00,North,351,0.0,0.0,82,0.00,,,0.00,VWS V14.01,2013-02-26 04:57:00,
2013-02-25 23:02:00,18.4,13.8,30.02,North,351,0.0,0.0,82,0.00,,,0.00,VWS V14.01,2013-02-26 05:02:00,
2013-02-25 23:07:00,18.1,13.5,30.02,North,351,0.0,0.0,82,0.00,,,0.00,VWS V14.01,2013-02-26 05:07:00,
2013-02-25 23:12:00,18.0,13.4,30.02,North,351,0.0,0.0,82,0.00,,,0.00,VWS V14.01,2013-02-26 05:12:00,
2013-02-25 23:17:00,17.8,13.2,30.01,North,351,0.0,0.0,82,0.00,,,0.00,VWS V14.01,2013-02-26 05:17:00,
2013-02-25 23:22:00,17.7,13.4,30.01,North,351,0.0,0.0,83,0.00,,,0.00,VWS V14.01,2013-02-26 05:22:00,
2013-02-25 23:27:00,17.5,13.2,30.01,North,351,0.0,0.0,83,0.00,,,0.00,VWS V14.01,2013-02-26 05:27:00,
2013-02-25 23:32:00,17.3,13.0,30.01,North,351,0.0,0.0,83,0.00,,,0.00,VWS V14.01,2013-02-26 05:32:00,
2013-02-25 23:37:00,17.2,12.9,30.01,North,351,0.0,0.0,83,0.00,,,0.00,VWS V14.01,2013-02-26 05:37:00,
2013-02-25 23:42:00,17.0,12.7,30.01,North,351,0.0,0.0,83,0.00,,,0.00,VWS V14.01,2013-02-26 05:42:00,
2013-02-25 23:47:00,16.9,12.6,30.02,North,351,0.0,0.0,83,0.00,,,0.00,VWS V14.01,2013-02-26 05:47:00,
2013-02-25 23:52:00,16.7,12.4,30.02,North,351,0.0,0.0,83,0.00,,,0.00,VWS V14.01,2013-02-26 05:52:00,
2013-02-25 23:57:00,16.5,12.2,30.02,North,351,0.0,0.0,83,0.00,,,0.00,VWS V14.01,2013-02-26 05:57:00,